createdAt,value
2022-12-20T00:02:20.834Z,11.50
2022-12-20T00:05:12.627Z,12.00
2022-12-20T00:08:05.360Z,11.50
2022-12-20T00:10:52.884Z,12.00
2022-12-20T00:13:40.447Z,13.20
2022-12-20T00:16:30.031Z,10.50
2022-12-20T00:19:17.861Z,12.20
2022-12-20T00:22:06.118Z,11.40
2022-12-20T00:24:54.527Z,11.30
2022-12-20T00:27:42.093Z,11.20
2022-12-20T00:30:29.547Z,11.10
2022-12-20T00:33:18.704Z,11.30
2022-12-20T00:36:07.480Z,11.10
2022-12-20T00:38:55.375Z,11.80
2022-12-20T00:41:43.682Z,13.10
2022-12-20T00:44:31.248Z,11.00
2022-12-20T00:47:18.959Z,10.60
2022-12-20T00:50:08.735Z,10.30
2022-12-20T00:52:56.890Z,10.10
2022-12-20T00:55:44.954Z,9.90
2022-12-20T00:58:33.166Z,9.80
2022-12-20T01:01:22.398Z,9.80
2022-12-20T01:04:10.140Z,9.70
2022-12-20T01:06:59.142Z,9.60
2022-12-20T01:09:46.970Z,9.70
2022-12-20T01:12:34.673Z,9.60
2022-12-20T01:15:22.529Z,9.60
2022-12-20T01:18:10.241Z,9.60
2022-12-20T01:21:02.673Z,9.70
2022-12-20T01:23:51.536Z,9.80
2022-12-20T01:26:39.438Z,10.00
2022-12-20T01:29:26.857Z,10.10
2022-12-20T01:32:14.581Z,10.10
2022-12-20T01:35:02.195Z,10.10
2022-12-20T01:37:49.928Z,10.10
2022-12-20T01:40:41.724Z,10.20
2022-12-20T01:43:46.113Z,10.20
2022-12-20T01:46:35.061Z,10.20
2022-12-20T01:49:24.085Z,10.30
2022-12-20T01:52:13.765Z,10.20
2022-12-20T01:55:04.153Z,10.10
2022-12-20T01:57:56.378Z,10.00
2022-12-20T02:00:43.877Z,9.90
2022-12-20T02:03:32.192Z,9.90
2022-12-20T02:06:21.920Z,10.60
2022-12-20T02:09:10.125Z,10.40
2022-12-20T02:12:03.994Z,10.10
2022-12-20T02:15:07.073Z,10.30
2022-12-20T02:17:58.815Z,10.60
2022-12-20T02:20:55.627Z,10.40
2022-12-20T02:24:06.121Z,10.50
2022-12-20T02:27:21.372Z,10.60
2022-12-20T02:30:19.153Z,10.70
2022-12-20T02:33:09.143Z,10.70
2022-12-20T02:35:59.927Z,10.80
2022-12-20T02:38:47.559Z,10.80
2022-12-20T02:41:40.219Z,10.80
2022-12-20T02:44:45.865Z,10.80
2022-12-20T02:47:37.709Z,10.80
2022-12-20T02:50:28.453Z,10.80
2022-12-20T02:53:16.403Z,10.70
2022-12-20T02:56:09.808Z,10.60
2022-12-20T02:58:59.883Z,10.50
2022-12-20T03:01:50.063Z,10.50
2022-12-20T03:04:42.205Z,10.60
2022-12-20T03:07:32.539Z,10.60
2022-12-20T03:10:20.731Z,10.60
2022-12-20T03:13:08.717Z,10.50
2022-12-20T03:15:59.759Z,10.50
2022-12-20T03:18:48.523Z,10.80
2022-12-20T03:21:38.421Z,11.60
2022-12-20T03:24:26.021Z,10.70
2022-12-20T03:27:14.265Z,10.70
2022-12-20T03:30:02.307Z,10.70
2022-12-20T03:32:53.738Z,10.80
2022-12-20T03:35:43.045Z,10.80
2022-12-20T03:38:32.518Z,10.80
2022-12-20T03:41:22.378Z,10.90
2022-12-20T03:44:10.153Z,10.90
2022-12-20T03:47:00.867Z,10.90
2022-12-20T03:49:48.570Z,10.90
2022-12-20T03:52:36.521Z,10.90
2022-12-20T03:55:26.535Z,8.10
2022-12-20T03:58:14.327Z,10.60
2022-12-20T04:01:01.915Z,10.50
2022-12-20T04:03:59.947Z,10.40
2022-12-20T04:06:48.454Z,10.20
2022-12-20T04:09:36.743Z,10.10
2022-12-20T04:12:30.894Z,10.00
2022-12-20T04:15:18.537Z,9.90
2022-12-20T04:18:08.133Z,9.80
2022-12-20T04:20:56.292Z,9.80
2022-12-20T04:23:48.399Z,9.80
2022-12-20T04:26:36.943Z,10.60
2022-12-20T04:29:25.920Z,9.80
2022-12-20T04:32:15.710Z,9.80
2022-12-20T04:35:04.237Z,9.70
2022-12-20T04:37:57.886Z,9.80
2022-12-20T04:40:45.415Z,9.90
2022-12-20T04:43:33.948Z,9.90
2022-12-20T04:46:27.522Z,10.20
2022-12-20T04:49:17.824Z,10.00
2022-12-20T04:52:19.517Z,10.00
2022-12-20T04:55:07.961Z,10.10
2022-12-20T04:58:00.665Z,10.10
2022-12-20T05:00:52.557Z,10.20
2022-12-20T05:03:48.218Z,10.20
2022-12-20T05:06:36.833Z,10.20
2022-12-20T05:09:25.122Z,10.30
2022-12-20T05:12:14.055Z,10.40
2022-12-20T05:15:02.002Z,10.40
2022-12-20T05:17:49.948Z,10.40
2022-12-20T05:20:39.274Z,10.30
2022-12-20T05:23:44.444Z,10.50
2022-12-20T05:26:39.036Z,11.80
2022-12-20T05:29:26.538Z,10.60
2022-12-20T05:32:17.507Z,10.60
2022-12-20T05:35:05.448Z,10.70
2022-12-20T05:37:55.754Z,10.50
2022-12-20T05:40:43.051Z,10.50
2022-12-20T05:43:32.286Z,10.40
2022-12-20T05:46:20.948Z,10.30
2022-12-20T05:49:20.063Z,10.20
2022-12-20T05:52:07.918Z,10.10
2022-12-20T05:54:59.063Z,10.20
2022-12-20T05:57:49.879Z,10.50
2022-12-20T06:00:44.612Z,10.20
2022-12-20T06:03:33.483Z,10.30
2022-12-20T06:06:27.749Z,10.30
2022-12-20T06:09:15.537Z,10.30
2022-12-20T06:12:12.208Z,10.30
2022-12-20T06:15:00.659Z,10.40
2022-12-20T06:17:50.098Z,10.50
2022-12-20T06:20:37.878Z,10.40
2022-12-20T06:23:26.477Z,10.20
2022-12-20T06:26:27.016Z,10.20
2022-12-20T06:29:17.634Z,10.10
2022-12-20T06:32:13.647Z,9.90
2022-12-20T06:35:01.689Z,10.00
2022-12-20T06:37:50.085Z,10.20
2022-12-20T06:40:39.662Z,10.20
2022-12-20T06:43:27.981Z,10.30
2022-12-20T06:46:18.652Z,10.20
2022-12-20T06:49:13.887Z,13.40
2022-12-20T06:52:01.608Z,10.60
2022-12-20T06:55:07.713Z,10.60
2022-12-20T06:57:59.501Z,10.70
2022-12-20T07:00:47.788Z,10.80
2022-12-20T07:03:37.888Z,11.50
2022-12-20T07:06:27.248Z,10.30
2022-12-20T07:09:14.736Z,11.00
2022-12-20T07:12:02.444Z,11.00
2022-12-20T07:14:49.954Z,11.30
2022-12-20T07:17:37.326Z,11.10
2022-12-20T07:20:26.725Z,11.00
2022-12-20T07:23:15.058Z,13.20
2022-12-20T07:26:04.258Z,10.60
2022-12-20T07:28:52.362Z,10.60
2022-12-20T07:31:40.125Z,10.50
2022-12-20T07:34:28.050Z,10.40
2022-12-20T07:37:16.893Z,10.30
2022-12-20T07:40:04.733Z,10.20
2022-12-20T07:42:52.367Z,10.20
2022-12-20T07:45:39.575Z,10.10
2022-12-20T07:48:27.497Z,10.00
2022-12-20T07:51:16.672Z,9.90
2022-12-20T07:56:56.250Z,9.50
2022-12-20T07:59:46.344Z,9.80
2022-12-20T08:02:36.850Z,9.70
2022-12-20T08:05:24.850Z,9.60
2022-12-20T08:08:12.086Z,9.60
2022-12-20T08:10:59.936Z,9.50
2022-12-20T08:13:54.161Z,9.50
2022-12-20T08:16:45.529Z,9.50
2022-12-20T08:19:33.166Z,9.50
2022-12-20T08:22:20.874Z,9.50
2022-12-20T08:25:09.971Z,9.50
2022-12-20T08:27:58.103Z,9.50
2022-12-20T08:30:47.137Z,9.50
2022-12-20T08:33:36.470Z,9.50
2022-12-20T08:36:25.600Z,9.60
2022-12-20T08:39:13.011Z,9.60
2022-12-20T08:42:01.056Z,9.70
2022-12-20T08:44:48.691Z,9.70
2022-12-20T08:47:40.625Z,9.70
2022-12-20T08:50:30.133Z,9.80
2022-12-20T08:53:18.138Z,9.90
2022-12-20T08:56:06.788Z,10.10
2022-12-20T08:58:54.575Z,9.90
2022-12-20T09:01:42.806Z,9.90
2022-12-20T09:04:32.836Z,10.00
2022-12-20T09:07:20.631Z,10.10
2022-12-20T09:10:09.297Z,9.70
2022-12-20T09:12:56.957Z,10.20
2022-12-20T09:15:45.395Z,10.30
2022-12-20T09:18:33.206Z,10.40
2022-12-20T09:21:22.470Z,10.80
2022-12-20T09:24:10.996Z,10.80
2022-12-20T09:26:58.682Z,10.90
2022-12-20T09:29:46.524Z,10.90
2022-12-20T09:32:33.997Z,11.10
2022-12-20T09:35:23.369Z,10.90
2022-12-20T09:38:12.933Z,10.80
2022-12-20T09:41:00.841Z,10.80
2022-12-20T09:43:48.493Z,13.10
2022-12-20T09:46:39.867Z,11.00
2022-12-20T09:49:31.059Z,11.00
2022-12-20T09:52:26.568Z,10.90
2022-12-20T09:55:21.247Z,10.70
2022-12-20T09:58:21.742Z,10.70
2022-12-20T10:01:24.428Z,10.80
2022-12-20T10:04:18.008Z,11.00
2022-12-20T10:07:11.857Z,10.70
2022-12-20T10:10:10.155Z,10.50
2022-12-20T10:13:02.631Z,10.50
2022-12-20T10:15:52.555Z,10.20
2022-12-20T10:18:49.531Z,11.10
2022-12-20T10:21:42.524Z,12.60
2022-12-20T10:24:31.960Z,10.40
2022-12-20T10:27:20.283Z,10.60
2022-12-20T10:30:13.201Z,10.20
2022-12-20T10:33:02.906Z,10.50
2022-12-20T10:35:50.831Z,10.40
2022-12-20T10:38:45.401Z,11.00
2022-12-20T10:44:25.631Z,10.60
2022-12-20T10:47:24.928Z,10.70
2022-12-20T10:50:19.728Z,10.80
2022-12-20T10:53:21.910Z,10.70
2022-12-20T10:56:14.592Z,10.70
2022-12-20T10:59:04.059Z,10.70
2022-12-20T11:21:34.196Z,10.50
2022-12-20T11:24:30.943Z,10.50
2022-12-20T11:27:24.545Z,10.30
2022-12-20T11:30:16.867Z,10.60
2022-12-20T11:33:20.247Z,10.30
2022-12-20T11:36:11.727Z,10.50
2022-12-20T11:39:06.665Z,10.80
2022-12-20T11:42:00.278Z,10.60
2022-12-20T11:45:01.969Z,10.50
2022-12-20T11:48:01.487Z,10.60
2022-12-20T11:51:03.033Z,10.30
2022-12-20T11:53:54.206Z,10.50
2022-12-20T11:56:45.593Z,10.50
2022-12-20T11:59:40.373Z,10.50
2022-12-20T12:02:30.338Z,10.40
2022-12-20T12:05:21.370Z,10.40
2022-12-20T12:08:17.953Z,10.30
2022-12-20T12:11:39.857Z,10.20
2022-12-20T12:14:35.443Z,10.40
2022-12-20T12:17:31.482Z,10.40
2022-12-20T12:20:24.804Z,10.20
2022-12-20T12:23:16.940Z,10.60
2022-12-20T12:26:06.470Z,10.40
2022-12-20T12:28:57.064Z,10.20
2022-12-20T12:31:48.466Z,10.20
2022-12-20T12:34:46.483Z,9.70
2022-12-20T12:37:51.290Z,10.10
2022-12-20T12:41:06.761Z,10.10
2022-12-20T12:43:58.857Z,10.10
2022-12-20T12:47:00.513Z,8.90
2022-12-20T12:49:51.398Z,10.50
2022-12-20T12:52:46.376Z,10.10
2022-12-20T12:55:45.282Z,10.40
2022-12-20T12:58:44.536Z,12.10
2022-12-20T13:01:52.110Z,9.80
2022-12-20T13:04:54.595Z,9.70
2022-12-20T13:07:46.287Z,9.80
2022-12-20T13:11:03.779Z,10.00
2022-12-20T13:13:53.707Z,10.10
2022-12-20T13:17:10.970Z,9.80
2022-12-20T13:19:57.881Z,9.90
2022-12-20T13:23:00.189Z,9.90
2022-12-20T13:25:49.154Z,9.70
2022-12-20T13:28:49.720Z,9.80
2022-12-20T13:31:41.292Z,9.70
2022-12-20T13:34:40.593Z,9.80
2022-12-20T13:38:01.187Z,9.80
2022-12-20T13:40:50.114Z,9.70
2022-12-20T13:43:46.697Z,9.70
2022-12-20T13:46:52.167Z,9.70
2022-12-20T13:49:54.033Z,9.70
2022-12-20T13:52:51.890Z,8.40
2022-12-20T13:55:42.798Z,9.80
2022-12-20T13:58:33.063Z,9.80
2022-12-20T14:01:25.973Z,9.80
2022-12-20T14:04:14.968Z,9.70
2022-12-20T14:07:04.243Z,9.80
2022-12-20T14:10:00.349Z,10.20
2022-12-20T14:12:56.861Z,9.80
2022-12-20T14:15:46.992Z,9.80
2022-12-20T14:18:39.678Z,9.50
2022-12-20T14:21:30.906Z,9.70
2022-12-20T14:24:24.185Z,9.90
2022-12-20T14:27:16.467Z,9.70
2022-12-20T14:30:05.946Z,9.70
2022-12-20T14:33:00.251Z,9.70
2022-12-20T14:35:49.122Z,9.70
2022-12-20T14:38:37.624Z,9.70
2022-12-20T14:41:41.760Z,10.00
2022-12-20T14:44:34.936Z,9.70
2022-12-20T14:47:29.207Z,9.80
2022-12-20T14:50:19.536Z,9.90
2022-12-20T14:53:18.717Z,10.20
2022-12-20T14:56:31.746Z,9.80
2022-12-20T14:59:35.288Z,9.70
2022-12-20T15:02:47.774Z,9.20
2022-12-20T15:06:13.265Z,9.70
2022-12-20T15:09:07.611Z,9.70
2022-12-20T15:12:42.040Z,9.90
2022-12-20T15:15:35.897Z,9.80
2022-12-20T15:19:42.229Z,11.70
2022-12-20T15:22:34.548Z,9.80
2022-12-20T15:25:22.476Z,9.60
2022-12-20T15:28:15.352Z,10.10
2022-12-20T15:31:04.978Z,9.60
2022-12-20T15:33:58.345Z,9.60
2022-12-20T15:36:51.322Z,9.60
2022-12-20T15:39:40.639Z,7.30
2022-12-20T15:42:30.045Z,9.80
2022-12-20T15:45:19.406Z,9.60
2022-12-20T15:48:07.685Z,10.00
2022-12-20T15:50:57.134Z,9.60
2022-12-20T15:53:46.588Z,10.80
2022-12-20T15:56:36.363Z,9.60
2022-12-20T16:02:41.724Z,9.80
2022-12-20T16:06:08.391Z,9.40
2022-12-20T16:08:58.390Z,9.00
2022-12-20T16:11:54.031Z,10.00
2022-12-20T16:14:57.342Z,9.60
2022-12-20T16:17:50.029Z,9.50
2022-12-20T16:20:39.161Z,9.50
2022-12-20T16:23:28.176Z,9.50
2022-12-20T16:26:19.982Z,9.60
2022-12-20T16:29:09.772Z,9.60
2022-12-20T16:32:15.215Z,9.60
2022-12-20T16:35:29.635Z,9.50
2022-12-20T16:38:20.451Z,9.90
2022-12-20T16:41:15.346Z,9.60
2022-12-20T16:44:04.266Z,9.50
2022-12-20T16:46:53.924Z,9.50
2022-12-20T16:49:51.224Z,9.50
2022-12-20T16:52:40.415Z,7.90
2022-12-20T16:55:33.316Z,9.50
2022-12-20T16:58:44.846Z,9.70
2022-12-20T17:01:35.172Z,9.50
2022-12-20T17:04:26.921Z,9.50
2022-12-20T17:07:16.684Z,9.40
2022-12-20T17:10:04.428Z,9.50
2022-12-20T17:12:52.617Z,9.50
2022-12-20T17:15:43.955Z,9.50
2022-12-20T17:18:31.945Z,9.40
2022-12-20T17:21:22.385Z,9.50
2022-12-20T17:24:17.870Z,9.50
2022-12-20T17:27:06.229Z,8.20
2022-12-20T17:29:56.802Z,9.40
2022-12-20T17:32:44.738Z,9.40
2022-12-20T17:35:42.026Z,9.40
2022-12-20T17:38:30.581Z,9.50
2022-12-20T17:41:28.859Z,9.50
2022-12-20T17:44:19.765Z,9.70
2022-12-20T17:47:08.468Z,9.60
2022-12-20T17:50:04.795Z,9.50
2022-12-20T17:53:00.977Z,8.80
2022-12-20T17:55:49.434Z,9.50
2022-12-20T17:58:43.235Z,9.70
2022-12-20T18:01:36.161Z,9.50
2022-12-20T18:04:27.001Z,9.40
2022-12-20T18:07:15.229Z,9.50
2022-12-20T18:10:03.880Z,11.70
2022-12-20T18:12:52.623Z,9.50
2022-12-20T18:15:45.868Z,9.50
2022-12-20T18:18:37.232Z,9.50
2022-12-20T18:21:27.366Z,9.50
2022-12-20T18:24:18.330Z,9.50
2022-12-20T18:27:06.680Z,10.70
2022-12-20T18:29:54.569Z,9.50
2022-12-20T18:32:43.862Z,9.60
2022-12-20T18:35:31.982Z,9.40
2022-12-20T18:38:23.563Z,9.10
2022-12-20T18:41:14.298Z,10.80
2022-12-20T18:44:03.729Z,9.50
2022-12-20T18:46:51.746Z,9.50
2022-12-20T18:49:42.880Z,9.40
2022-12-20T18:52:30.884Z,9.50
2022-12-20T18:55:18.545Z,9.20
2022-12-20T18:58:06.387Z,9.50
2022-12-20T19:00:53.777Z,9.50
2022-12-20T19:03:43.983Z,9.50
2022-12-20T19:06:33.782Z,9.50
2022-12-20T19:09:21.467Z,9.50
2022-12-20T19:12:09.208Z,9.50
2022-12-20T19:14:56.756Z,9.60
2022-12-20T19:17:44.454Z,9.50
2022-12-20T19:20:31.897Z,9.50
2022-12-20T19:23:22.649Z,9.50
2022-12-20T19:26:13.749Z,9.50
2022-12-20T19:29:01.546Z,9.60
2022-12-20T19:31:49.599Z,9.50
2022-12-20T19:34:37.324Z,10.40
2022-12-20T19:37:25.020Z,9.50
2022-12-20T19:40:15.590Z,10.90
2022-12-20T19:43:03.161Z,9.50
2022-12-20T19:45:51.215Z,9.50
2022-12-20T19:48:38.772Z,9.60
2022-12-20T19:51:28.213Z,9.60
2022-12-20T19:54:18.532Z,9.50
2022-12-20T19:57:07.638Z,9.60
2022-12-20T19:59:56.229Z,9.60
2022-12-20T20:02:44.077Z,9.50
2022-12-20T20:05:31.894Z,9.50
2022-12-20T20:08:19.931Z,9.60
2022-12-20T20:11:09.853Z,9.50
2022-12-20T20:14:03.099Z,9.50
2022-12-20T20:16:51.088Z,9.50
2022-12-20T20:19:40.199Z,9.50
2022-12-20T20:22:28.780Z,9.40
2022-12-20T20:25:16.519Z,9.40
2022-12-20T20:28:04.403Z,9.40
2022-12-20T20:30:54.369Z,9.40
2022-12-20T20:33:41.906Z,9.40
2022-12-20T20:36:30.569Z,9.60
2022-12-20T20:39:18.074Z,9.40
2022-12-20T20:42:05.646Z,9.40
2022-12-20T20:44:53.457Z,9.40
2022-12-20T20:47:44.194Z,9.30
2022-12-20T20:50:32.228Z,9.40
2022-12-20T20:53:21.058Z,9.40
2022-12-20T20:56:08.901Z,9.40
2022-12-20T20:59:03.015Z,9.40
2022-12-20T21:01:52.646Z,9.40
2022-12-20T21:04:41.649Z,9.40
2022-12-20T21:07:29.045Z,9.40
2022-12-20T21:10:17.299Z,9.40
2022-12-20T21:13:06.194Z,9.40
2022-12-20T21:15:54.213Z,9.40
2022-12-20T21:18:41.620Z,9.40
2022-12-20T21:21:31.063Z,9.40
2022-12-20T21:24:18.651Z,9.40
2022-12-20T21:27:06.578Z,9.30
2022-12-20T21:29:54.261Z,9.40
2022-12-20T21:32:42.232Z,10.10
2022-12-20T21:35:33.089Z,9.30
2022-12-20T21:38:22.096Z,9.40
2022-12-20T21:41:10.518Z,9.40
2022-12-20T21:43:59.243Z,9.40
2022-12-20T21:46:46.983Z,9.40
2022-12-20T21:49:34.751Z,9.40
2022-12-20T21:52:22.114Z,9.40
2022-12-20T21:55:11.971Z,9.40
2022-12-20T21:57:59.705Z,9.40
2022-12-20T22:00:54.098Z,9.50
2022-12-20T22:03:42.696Z,9.40
2022-12-20T22:06:31.618Z,9.40
2022-12-20T22:09:19.752Z,9.40
2022-12-20T22:12:08.998Z,9.40
2022-12-20T22:14:56.958Z,9.80
2022-12-20T22:17:45.037Z,9.40
2022-12-20T22:20:33.551Z,9.50
2022-12-20T22:23:21.011Z,9.30
2022-12-20T22:26:09.806Z,9.40
2022-12-20T22:29:00.559Z,9.40
2022-12-20T22:31:48.189Z,9.40
2022-12-20T22:34:35.903Z,9.40
2022-12-20T22:37:23.892Z,9.30
2022-12-20T22:40:12.214Z,9.40
2022-12-20T22:42:59.929Z,9.40
2022-12-20T22:45:58.515Z,9.40
2022-12-20T22:48:48.694Z,9.40
2022-12-20T22:51:36.237Z,9.30
2022-12-20T22:54:24.171Z,9.40
2022-12-20T22:57:14.858Z,9.40
2022-12-20T23:00:02.360Z,9.40
2022-12-20T23:02:51.977Z,9.50
2022-12-20T23:05:40.070Z,9.40
2022-12-20T23:08:28.521Z,9.40
2022-12-20T23:11:35.712Z,9.40
2022-12-20T23:14:41.161Z,9.50
2022-12-20T23:17:28.898Z,9.40
2022-12-20T23:20:37.330Z,9.40
2022-12-20T23:23:25.286Z,9.40
2022-12-20T23:26:13.217Z,9.50
2022-12-20T23:29:01.279Z,9.40
2022-12-20T23:31:49.252Z,9.40
2022-12-20T23:34:37.344Z,9.40
2022-12-20T23:37:26.792Z,9.40
2022-12-20T23:40:14.839Z,9.40
2022-12-20T23:43:02.697Z,9.40
2022-12-20T23:45:50.367Z,9.30
2022-12-20T23:48:38.384Z,9.40
2022-12-20T23:51:26.079Z,9.30
2022-12-20T23:54:15.524Z,9.30
2022-12-20T23:57:03.423Z,9.30
2022-12-20T23:59:51.702Z,9.30
